Open Text Pre-Tax Profit Margin 2006-2020 | OTEX

Current and historical pre-tax profit margin for Open Text (OTEX) from 2006 to 2020. Pre-tax profit margin can be defined as earnings before taxes as a portion of total revenue. Open Text pre-tax profit margin for the three months ending March 31, 2020 was .
Open Text Pre-Tax Profit Margin Historical Data
Date TTM Revenue TTM Pre-Tax Income Pre-Tax Margin
2020-03-31 $3.03B $0.42B 13.69%
2019-12-31 $2.94B $0.49B 16.52%
2019-09-30 $2.90B $0.47B 16.29%
2019-06-30 $2.87B $0.44B 15.34%
2019-03-31 $2.88B $0.42B 14.50%
2018-12-31 $2.84B $0.39B 13.76%
2018-09-30 $2.84B $0.39B 13.66%
2018-06-30 $2.82B $0.39B 13.71%
2018-03-31 $2.73B $0.37B 13.43%
2017-12-31 $2.63B $0.32B 12.23%
2017-09-30 $2.44B $0.26B 10.65%
2017-06-30 $2.29B $0.25B 10.86%
2017-03-31 $2.11B $0.24B 11.17%
2016-12-31 $1.96B $0.28B 14.03%
2016-09-30 $1.88B $0.29B 15.46%
2016-06-30 $1.83B $0.29B 15.95%
2016-03-31 $1.82B $0.28B 15.57%
2015-12-31 $1.83B $0.24B 12.89%
2015-09-30 $1.83B $0.24B 12.92%
2015-06-30 $1.85B $0.27B 14.36%
2015-03-31 $1.86B $0.30B 16.04%
2014-12-31 $1.86B $0.33B 17.86%
2014-09-30 $1.76B $0.31B 17.61%
2014-06-30 $1.63B $0.28B 17.05%
2014-03-31 $1.48B $0.22B 14.88%
2013-12-31 $1.37B $0.20B 14.42%
2013-09-30 $1.36B $0.19B 14.11%
2013-06-30 $1.36B $0.18B 13.06%
2013-03-31 $1.32B $0.17B 12.56%
2012-12-31 $1.28B $0.15B 11.76%
2012-09-30 $1.25B $0.14B 11.24%
2012-06-30 $1.21B $0.14B 11.43%
2012-03-31 $1.19B $0.14B 11.89%
2011-12-31 $1.16B $0.15B 12.96%
2011-09-30 $1.10B $0.14B 12.69%
2011-06-30 $1.03B $0.14B 13.28%
2011-03-31 $0.99B $0.14B 14.29%
2010-12-31 $0.94B $0.13B 13.77%
2010-09-30 $0.92B $0.12B 12.75%
2010-06-30 $0.91B $0.09B 9.98%
2010-03-31 $0.88B $0.08B 9.60%
2009-12-31 $0.85B $0.10B 11.24%
2009-09-30 $0.81B $0.07B 7.99%
2009-06-30 $0.79B $0.08B 10.31%
2009-03-31 $0.78B $0.09B 11.75%
2008-12-31 $0.77B $0.07B 9.35%
2008-09-30 $0.75B $0.09B 11.54%
2008-06-30 $0.73B $0.08B 10.47%
2008-03-31 $0.70B $0.05B 6.85%
2007-12-31 $0.68B $0.04B 6.49%
2007-09-30 $0.66B $0.03B 4.86%
2007-06-30 $0.60B $0.03B 5.55%
2007-03-31 $0.53B $0.03B 6.10%
2006-12-31 $0.47B $0.04B 7.66%
2006-09-30 $0.42B $0.04B 9.33%
2006-06-30 $0.41B $0.01B 2.44%
2006-03-31 $0.41B $0.01B 1.45%
2005-12-31 $0.42B $0.00B 0.48%
Sector Industry Market Cap Revenue
Computer and Technology Computer Software $12.156B $3.110B
Open Text Corporation is engaged in development of innovative intranet, extranet and e-Business applications. Since creating one of the first search engines to index the World Wide Web, the company has remained at the forefront of Internet-based technologies. Open Text solutions allow individuals, teams, organizations, and global trading communities to collaborate on projects, share ideas and accelerate innovation to the fastest possible speed. Open Text Corporation is headquartered in Waterloo, Canada.
Stock Name Country Market Cap PE Ratio
Microsoft (MSFT) United States $1000.000B 36.22
Adobe (ADBE) United States $212.631B 57.72
SAP SE (SAP) Germany $190.546B 34.55
Salesforce, Inc (CRM) United States $177.641B 243.41
Oracle (ORCL) United States $168.593B 15.70
Intuit (INTU) United States $79.321B 63.24
VMware (VMW) United States $59.279B 30.62
Autodesk (ADSK) United States $50.827B 137.21
Dassault Systemes SA (DASTY) France $45.803B 50.58
Cadence Design Systems (CDNS) United States $29.884B 29.53
Synopsys (SNPS) United States $29.451B 63.73
ANSYS (ANSS) United States $26.490B 63.15
Citrix Systems (CTXS) United States $16.994B 28.60
SS&C Technologies Holdings (SSNC) United States $15.857B 15.95
PTC (PTC) United States $9.975B 46.69
Pegasystems (PEGA) United States $9.135B 0.00
Trend Micro (TMICY) Japan $8.616B 31.12
Nuance Communications (NUAN) United States $8.212B 48.48
Aspen Technology (AZPN) United States $6.872B 29.64
Manhattan Associates (MANH) United States $5.842B 72.42
Konami (KNMCY) Japan $4.962B 27.59
Descartes Systems Group (DSGX) Canada $4.770B 120.15
ACI Worldwide (ACIW) United States $3.549B 37.64
Blackbaud (BLKB) United States $3.258B 48.68
Verint Systems (VRNT) United States $2.833B 19.17
Bottomline Technologies (EPAY) United States $2.296B 158.42
Cornerstone OnDemand (CSOD) United States $2.295B 26.27
CommVault Systems (CVLT) United States $1.999B 78.35
Progress Software (PRGS) United States $1.648B 14.48
Sapiens (SPNS) Israel $1.557B 36.47
PROS Holdings (PRO) United States $1.553B 0.00
MicroStrategy (MSTR) United States $1.197B 48.67
Simulations Plus (SLP) United States $1.157B 120.20
Rosetta Stone (RST) United States $0.665B 0.00
QAD (QADB) United States $0.654B 3200.00
Magic Software Enterprises (MGIC) Israel $0.628B 20.38
American Software (AMSWA) United States $0.557B 66.04
Avid Technology (AVID) United States $0.386B 31.39
Canaan (CAN) China $0.367B 0.00
OptimizeRx (OPRX) United States $0.252B 0.00
Icad Inc (ICAD) United States $0.244B 0.00
GlobalSCAPE (GSB) United States $0.178B 14.03
Smith Micro Software (SMSI) United States $0.163B 13.55
ServiceSource (SREV) United States $0.163B 0.00
Park City (PCYG) United States $0.103B 104.80
Neonode (NEON) Sweden $0.081B 0.00
NetSol Technologies (NTWK) United States $0.039B 11.85
CounterPath (CPAH) Canada $0.027B 0.00
BSQUARE (BSQR) United States $0.020B 0.00
GSE Systems (GVP) United States $0.020B 19.20